createdAt,value
2019-02-05T00:02:34.423Z,-0.63
2019-02-05T00:07:40.490Z,-0.59
2019-02-05T00:12:45.719Z,-0.53
2019-02-05T00:17:51.711Z,-0.57
2019-02-05T00:22:57.069Z,-0.59
2019-02-05T00:28:02.374Z,-0.70
2019-02-05T00:33:08.868Z,-0.65
2019-02-05T00:38:14.078Z,-0.60
2019-02-05T00:43:19.262Z,-0.55
2019-02-05T00:48:25.297Z,-0.66
2019-02-05T00:53:30.574Z,-0.61
2019-02-05T00:58:35.796Z,-0.62
2019-02-05T01:03:41.035Z,-0.74
2019-02-05T01:08:46.211Z,-0.74
2019-02-05T01:13:53.017Z,-0.76
2019-02-05T01:18:58.790Z,-0.74
2019-02-05T01:24:05.080Z,-0.57
2019-02-05T01:29:10.685Z,-0.45
2019-02-05T01:34:15.963Z,-0.52
2019-02-05T01:39:21.160Z,-0.47
2019-02-05T01:44:26.975Z,-0.67
2019-02-05T01:49:33.191Z,-0.61
2019-02-05T01:54:38.363Z,-0.59
2019-02-05T01:59:44.001Z,-0.68
2019-02-05T02:04:50.736Z,-0.63
2019-02-05T02:09:56.305Z,-0.67
2019-02-05T02:15:01.514Z,-0.47
2019-02-05T02:20:09.387Z,-0.65
2019-02-05T02:25:15.145Z,-0.70
2019-02-05T02:30:23.987Z,-0.66
2019-02-05T02:35:29.216Z,-0.78
2019-02-05T02:40:35.265Z,-0.83
2019-02-05T02:45:40.548Z,-0.90
2019-02-05T02:50:46.128Z,-0.83
2019-02-05T02:55:52.527Z,-0.89
2019-02-05T03:00:57.914Z,-1.15
2019-02-05T03:06:03.095Z,-1.32
2019-02-05T03:11:08.784Z,-1.27
2019-02-05T03:16:14.129Z,-1.28
2019-02-05T03:21:19.373Z,-1.10
2019-02-05T03:26:25.030Z,-1.08
2019-02-05T03:31:30.348Z,-1.00
2019-02-05T03:36:35.955Z,-0.90
2019-02-05T03:41:43.671Z,-0.89
2019-02-05T03:46:49.179Z,-0.71
2019-02-05T03:52:11.303Z,-0.73
2019-02-05T03:57:53.877Z,-0.69
2019-02-05T04:03:12.506Z,-0.67
2019-02-05T04:08:56.777Z,-0.66
2019-02-05T04:14:46.591Z,-0.57
2019-02-05T04:20:47.981Z,-0.66
2019-02-05T04:26:05.150Z,-0.60
2019-02-05T04:31:37.496Z,-0.60
2019-02-05T04:37:10.114Z,-0.55
2019-02-05T04:42:51.617Z,-0.53
2019-02-05T04:48:43.694Z,-0.36
2019-02-05T04:54:26.096Z,-0.39
2019-02-05T05:00:18.139Z,-0.28
2019-02-05T05:05:47.029Z,-0.38
2019-02-05T05:10:52.369Z,-0.40
2019-02-05T05:15:58.384Z,-0.36
2019-02-05T05:21:03.917Z,-0.43
2019-02-05T05:26:09.628Z,-0.34
2019-02-05T05:31:14.841Z,-0.32
2019-02-05T05:36:20.328Z,-0.36
2019-02-05T05:41:26.373Z,-0.35
2019-02-05T05:46:31.649Z,-0.30
2019-02-05T05:51:36.801Z,-0.24
2019-02-05T05:56:41.978Z,-0.20
2019-02-05T06:01:47.358Z,-0.25
2019-02-05T06:06:52.581Z,-0.21
2019-02-05T06:11:57.818Z,-0.16
2019-02-05T06:17:03.014Z,-0.14
2019-02-05T06:22:08.600Z,-0.15
2019-02-05T06:27:14.225Z,-0.02
2019-02-05T06:32:19.398Z,-0.06
2019-02-05T06:37:24.761Z,-0.14
2019-02-05T06:42:30.389Z,-0.14
2019-02-05T06:47:35.863Z,-0.12
2019-02-05T06:52:41.721Z,-0.11
2019-02-05T06:57:49.157Z,-0.12
2019-02-05T07:02:54.677Z,-0.12
2019-02-05T07:08:00.763Z,-0.18
2019-02-05T07:13:06.132Z,-0.20
2019-02-05T07:18:11.625Z,-0.21
2019-02-05T07:23:16.959Z,-0.13
2019-02-05T07:28:22.719Z,-0.16
2019-02-05T07:33:28.355Z,-0.21
2019-02-05T07:38:34.203Z,-0.25
2019-02-05T07:43:40.451Z,-0.28
2019-02-05T07:48:46.212Z,-0.28
2019-02-05T07:53:51.590Z,-0.25
2019-02-05T07:58:56.932Z,-0.24
2019-02-05T08:04:02.187Z,-0.22
2019-02-05T08:09:10.291Z,-0.19
2019-02-05T08:14:17.341Z,-0.16
2019-02-05T08:19:22.528Z,-0.13
2019-02-05T08:24:28.036Z,-0.11
2019-02-05T08:29:33.426Z,-0.09
2019-02-05T08:34:39.074Z,-0.05
2019-02-05T08:39:44.258Z,0.03
2019-02-05T08:44:50.924Z,0.07
2019-02-05T08:49:56.119Z,0.15
2019-02-05T08:55:01.664Z,0.19
2019-02-05T09:00:10.776Z,0.21
2019-02-05T09:05:16.377Z,0.29
2019-02-05T09:10:24.303Z,0.35
2019-02-05T09:15:29.941Z,0.43
2019-02-05T09:20:36.144Z,0.45
2019-02-05T09:25:43.262Z,0.55
2019-02-05T09:30:50.125Z,0.63
2019-02-05T09:35:55.292Z,0.66
2019-02-05T09:41:00.807Z,0.83
2019-02-05T09:46:06.560Z,0.84
2019-02-05T09:51:11.783Z,0.95
2019-02-05T09:56:17.644Z,1.01
2019-02-05T10:01:22.797Z,1.00
2019-02-05T10:06:27.963Z,1.02
2019-02-05T10:11:33.986Z,1.17
2019-02-05T10:16:39.506Z,1.28
2019-02-05T10:21:45.042Z,1.32
2019-02-05T10:26:50.212Z,1.42
2019-02-05T10:31:55.659Z,1.49
2019-02-05T10:37:00.821Z,1.57
2019-02-05T10:42:07.053Z,1.65
2019-02-05T10:47:12.494Z,1.77
2019-02-05T10:52:17.690Z,1.90
2019-02-05T10:57:22.862Z,2.05
2019-02-05T11:02:28.010Z,2.21
2019-02-05T11:07:33.193Z,2.21
2019-02-05T11:12:38.738Z,2.15
2019-02-05T11:17:43.906Z,2.15
2019-02-05T11:22:49.116Z,2.15
2019-02-05T11:27:54.271Z,2.11
2019-02-05T11:32:59.457Z,2.11
2019-02-05T11:38:06.046Z,2.17
2019-02-05T11:43:11.197Z,2.21
2019-02-05T11:48:17.982Z,2.26
2019-02-05T11:53:23.350Z,2.29
2019-02-05T11:58:28.507Z,2.37
2019-02-05T12:03:34.250Z,2.44
2019-02-05T12:08:39.381Z,2.45
2019-02-05T12:13:44.790Z,2.44
2019-02-05T12:18:49.884Z,2.48
2019-02-05T12:23:54.980Z,2.50
2019-02-05T12:29:00.461Z,2.53
2019-02-05T12:34:06.509Z,2.55
2019-02-05T12:39:21.123Z,2.57
2019-02-05T12:44:26.596Z,2.58
2019-02-05T12:49:31.719Z,2.56
2019-02-05T12:54:37.727Z,2.52
2019-02-05T12:59:43.231Z,2.56
2019-02-05T13:04:48.321Z,2.57
2019-02-05T13:09:53.496Z,2.62
2019-02-05T13:14:58.661Z,2.70
2019-02-05T13:20:04.673Z,2.74
2019-02-05T13:25:15.507Z,2.81
2019-02-05T13:30:26.137Z,2.84
2019-02-05T13:35:31.510Z,2.87
2019-02-05T13:40:37.661Z,2.91
2019-02-05T13:45:43.525Z,2.87
2019-02-05T13:50:48.993Z,2.89
2019-02-05T13:55:54.668Z,2.90
2019-02-05T14:00:59.834Z,2.93
2019-02-05T14:06:05.018Z,2.90
2019-02-05T14:11:10.309Z,2.92
2019-02-05T14:16:16.022Z,2.93
2019-02-05T14:21:21.110Z,2.95
2019-02-05T14:26:26.963Z,3.00
2019-02-05T14:31:33.185Z,3.02
2019-02-05T14:36:38.367Z,3.02
2019-02-05T14:41:43.842Z,3.02
2019-02-05T14:46:49.922Z,3.04
2019-02-05T14:51:57.783Z,3.02
2019-02-05T14:57:02.215Z,3.01
2019-02-05T15:02:08.035Z,3.03
2019-02-05T15:07:13.538Z,3.00
2019-02-05T15:12:19.950Z,2.92
2019-02-05T15:17:26.035Z,2.93
2019-02-05T15:22:31.192Z,2.93
2019-02-05T15:27:36.277Z,2.91
2019-02-05T15:32:57.893Z,2.94
2019-02-05T15:38:03.114Z,2.90
2019-02-05T15:43:08.280Z,2.93
2019-02-05T15:48:13.521Z,2.96
2019-02-05T15:53:19.051Z,2.81
2019-02-05T15:58:24.225Z,2.62
2019-02-05T16:03:31.165Z,2.39
2019-02-05T16:08:36.803Z,2.24
2019-02-05T16:13:42.139Z,2.08
2019-02-05T16:18:47.299Z,1.86
2019-02-05T16:23:52.730Z,1.86
2019-02-05T16:28:59.963Z,1.87
2019-02-05T16:34:06.908Z,1.79
2019-02-05T16:39:12.381Z,1.67
2019-02-05T16:44:19.565Z,1.64
2019-02-05T16:49:24.680Z,1.70
2019-02-05T16:54:30.272Z,1.77
2019-02-05T16:59:35.721Z,1.81
2019-02-05T17:04:41.000Z,1.69
2019-02-05T17:09:46.528Z,1.64
2019-02-05T17:14:52.722Z,1.62
2019-02-05T17:19:58.192Z,1.60
2019-02-05T17:25:03.974Z,1.65
2019-02-05T17:30:12.386Z,1.77
2019-02-05T17:35:17.990Z,1.86
2019-02-05T17:40:24.606Z,1.89
2019-02-05T17:45:34.986Z,1.88
2019-02-05T17:50:40.327Z,1.88
2019-02-05T17:55:47.289Z,1.83
2019-02-05T18:00:57.057Z,1.78
2019-02-05T18:06:02.289Z,1.77
2019-02-05T18:11:09.856Z,1.78
2019-02-05T18:16:18.169Z,1.81
2019-02-05T18:21:23.514Z,1.80
2019-02-05T18:26:28.867Z,1.69
2019-02-05T18:31:36.418Z,1.63
2019-02-05T18:36:42.563Z,1.61
2019-02-05T18:41:48.589Z,1.60
2019-02-05T18:46:54.714Z,1.57
2019-02-05T18:52:00.696Z,1.40
2019-02-05T18:57:06.663Z,1.39
2019-02-05T19:02:12.766Z,1.46
2019-02-05T19:07:18.838Z,1.42
2019-02-05T19:12:24.482Z,1.41
2019-02-05T19:17:30.354Z,1.46
2019-02-05T19:22:35.991Z,1.39
2019-02-05T19:27:41.543Z,1.47
2019-02-05T19:32:47.763Z,1.48
2019-02-05T19:37:54.362Z,1.48
2019-02-05T19:43:00.128Z,1.50
2019-02-05T19:48:08.509Z,1.47
2019-02-05T19:53:15.133Z,1.43
2019-02-05T19:58:21.065Z,1.41
2019-02-05T20:03:38.027Z,1.48
2019-02-05T20:08:36.122Z,1.49
2019-02-05T20:13:42.099Z,1.53
2019-02-05T20:18:48.672Z,1.53
2019-02-05T20:23:55.230Z,1.52
2019-02-05T20:29:01.336Z,1.51
2019-02-05T20:34:07.614Z,1.45
2019-02-05T20:39:15.975Z,1.49
2019-02-05T20:44:22.025Z,1.51
2019-02-05T20:49:28.528Z,1.54
2019-02-05T20:54:34.178Z,1.53
2019-02-05T20:59:40.546Z,1.49
2019-02-05T21:04:48.669Z,1.47
2019-02-05T21:09:54.952Z,1.47
2019-02-05T21:15:01.212Z,1.40
2019-02-05T21:20:08.750Z,1.28
2019-02-05T21:25:15.726Z,1.21
2019-02-05T21:30:21.477Z,1.11
2019-02-05T21:35:26.811Z,1.07
2019-02-05T21:40:33.069Z,1.04
2019-02-05T21:45:39.007Z,1.02
2019-02-05T21:50:44.541Z,1.01
2019-02-05T21:55:50.100Z,0.97
2019-02-05T22:00:55.285Z,0.95
2019-02-05T22:06:01.047Z,0.82
2019-02-05T22:11:06.617Z,0.79
2019-02-05T22:16:12.104Z,0.80
2019-02-05T22:21:18.313Z,0.78
2019-02-05T22:26:23.471Z,0.71
2019-02-05T22:31:29.102Z,0.66
2019-02-05T22:36:34.355Z,0.65
2019-02-05T22:41:39.523Z,0.55
2019-02-05T22:46:44.611Z,0.49
2019-02-05T22:51:50.836Z,0.41
2019-02-05T22:56:56.014Z,0.33
2019-02-05T23:02:03.422Z,0.23
2019-02-05T23:07:14.948Z,0.16
2019-02-05T23:12:42.560Z,0.14
2019-02-05T23:17:47.932Z,0.09
2019-02-05T23:22:53.093Z,0.02
2019-02-05T23:27:58.252Z,-0.01
2019-02-05T23:33:04.435Z,-0.04
2019-02-05T23:38:10.042Z,-0.13
2019-02-05T23:43:15.138Z,-0.22
2019-02-05T23:48:22.194Z,-0.38
2019-02-05T23:53:27.424Z,-0.53
2019-02-05T23:58:32.516Z,-0.56
